PWSweather.com
Personal Weather Stations
Station Observations
KWABLAIN13
Ptl Weather, Blaine, WA

Ptl WeatherBlaine, WA

Lat: 48.997393, Lon: -122.748614

Elevation: 57

Station Type: Davis Advantage Pro 2

http://www.ptlnet.net

High Low Average
Temperature 47.6°F8.7°C 42.9°F6.1°C 44.6°F7.0°C
Dew Point 43.6°F6.4°C 39.9°F4.4°C 41.0°F5.0°C
Winds 12.0 mph 19.3 kmh Calm Calm 5.0 mph SSE8.0 kmh SSE
Wind Gusts 15.0 mph24.1 kmh 2.0 mph3.2 kmh 9.0 mph14.5 kmh
Humidity 96% 79% 87%
Pressure 29.67 in1004.7 mb 29.48 in998.3 mb -
Precipitation 0.00 in0.0 mm - -
Hour Temp Dew Point Humidity Winds Wind Gusts Pressure Precip Precip Rate Daily Precip Total
12:05 AM 45.9°F7.7°C 40.7°F4.8°C 82% 2.0 mph SSE3.2 kmh SSE 7.0 mph11.3 kmh 29.49 in998.6 mb 0.00 in0.0 mm 0.00 in0.0 mm 0.00 in0.0 mm
12:10 AM 45.8°F7.7°C 40.9°F4.9°C 83% 2.0 mph SSE3.2 kmh SSE 9.0 mph14.5 kmh 29.49 in998.6 mb 0.00 in0.0 mm 0.00 in0.0 mm 0.00 in0.0 mm
12:24 AM 45.5°F7.5°C 41.0°F5.0°C 84% 6.0 mph S9.7 kmh S 9.0 mph14.5 kmh 29.49 in998.6 mb 0.00 in0.0 mm 0.00 in0.0 mm 0.00 in0.0 mm
12:30 AM 45.4°F7.4°C 40.9°F4.9°C 84% 5.0 mph SSE8.0 kmh SSE 14.0 mph22.5 kmh 29.49 in998.6 mb 0.00 in0.0 mm 0.00 in0.0 mm 0.00 in0.0 mm
12:44 AM 45.2°F7.3°C 41.0°F5.0°C 85% 2.0 mph SSE3.2 kmh SSE 9.0 mph14.5 kmh 29.49 in998.6 mb 0.00 in0.0 mm 0.00 in0.0 mm 0.00 in0.0 mm
12:50 AM 45.1°F7.3°C 41.2°F5.1°C 86% 4.0 mph S6.4 kmh S 9.0 mph14.5 kmh 29.49 in998.6 mb 0.01 in0.3 mm 0.10 in2.5 mm 0.01 in0.3 mm
01:05 AM 44.8°F7.1°C 41.2°F5.1°C 87% 2.0 mph S3.2 kmh S 11.0 mph17.7 kmh 29.48 in998.3 mb 0.01 in0.3 mm 0.00 in0.0 mm 0.01 in0.3 mm
01:10 AM 44.7°F7.1°C 41.1°F5.1°C 87% 3.0 mph SSE4.8 kmh SSE 3.0 mph4.8 kmh 29.48 in998.3 mb 0.02 in0.5 mm 0.12 in3.0 mm 0.02 in0.5 mm
01:25 AM 44.3°F6.8°C 41.3°F5.2°C 89% 1.0 mph SE1.6 kmh SE 5.0 mph8.0 kmh 29.49 in998.6 mb 0.02 in0.5 mm 0.00 in0.0 mm 0.02 in0.5 mm
01:30 AM 44.2°F6.8°C 41.2°F5.1°C 89% 3.0 mph SE4.8 kmh SE 5.0 mph8.0 kmh 29.49 in998.6 mb 0.02 in0.5 mm 0.00 in0.0 mm 0.02 in0.5 mm
01:45 AM 44.0°F6.7°C 41.3°F5.2°C 90% 5.0 mph S8.0 kmh S 7.0 mph11.3 kmh 29.48 in998.3 mb 0.02 in0.5 mm 0.00 in0.0 mm 0.02 in0.5 mm
01:49 AM 44.0°F6.7°C 41.3°F5.2°C 90% 5.0 mph SE8.0 kmh SE 7.0 mph11.3 kmh 29.49 in998.6 mb 0.02 in0.5 mm 0.00 in0.0 mm 0.02 in0.5 mm
02:05 AM 44.1°F6.7°C 41.1°F5.1°C 89% 4.0 mph SE6.4 kmh SE 9.0 mph14.5 kmh 29.49 in998.6 mb 0.01 in0.3 mm 0.00 in0.0 mm 0.02 in0.5 mm
02:10 AM 44.2°F6.8°C 41.2°F5.1°C 89% 5.0 mph SE8.0 kmh SE 9.0 mph14.5 kmh 29.49 in998.6 mb 0.01 in0.3 mm 0.00 in0.0 mm 0.02 in0.5 mm
02:25 AM 44.2°F6.8°C 41.2°F5.1°C 89% 4.0 mph SSE6.4 kmh SSE 5.0 mph8.0 kmh 29.50 in999.0 mb 0.00 in0.0 mm 0.00 in0.0 mm 0.02 in0.5 mm
02:30 AM 44.3°F6.8°C 41.3°F5.2°C 89% 5.0 mph SSE8.0 kmh SSE 8.0 mph12.9 kmh 29.50 in999.0 mb 0.00 in0.0 mm 0.00 in0.0 mm 0.02 in0.5 mm
02:45 AM 44.3°F6.8°C 41.3°F5.2°C 89% 4.0 mph SSE6.4 kmh SSE 8.0 mph12.9 kmh 29.50 in999.0 mb 0.00 in0.0 mm 0.00 in0.0 mm 0.02 in0.5 mm
02:49 AM 44.3°F6.8°C 41.3°F5.2°C 89% 9.0 mph SSE14.5 kmh SSE 9.0 mph14.5 kmh 29.50 in999.0 mb 0.00 in0.0 mm 0.00 in0.0 mm 0.02 in0.5 mm
03:05 AM 44.3°F6.8°C 41.3°F5.2°C 89% 5.0 mph SSE8.0 kmh SSE 12.0 mph19.3 kmh 29.50 in999.0 mb 0.00 in0.0 mm 0.00 in0.0 mm 0.02 in0.5 mm
03:10 AM 44.3°F6.8°C 41.3°F5.2°C 89% 4.0 mph SSW6.4 kmh SSW 4.0 mph6.4 kmh 29.50 in999.0 mb 0.00 in0.0 mm 0.00 in0.0 mm 0.02 in0.5 mm
03:25 AM 44.3°F6.8°C 41.3°F5.2°C 89% 9.0 mph SSE14.5 kmh SSE 10.0 mph16.1 kmh 29.50 in999.0 mb 0.00 in0.0 mm 0.00 in0.0 mm 0.02 in0.5 mm
03:29 AM 44.3°F6.8°C 41.3°F5.2°C 89% 5.0 mph SE8.0 kmh SE 10.0 mph16.1 kmh 29.50 in999.0 mb 0.00 in0.0 mm 0.00 in0.0 mm 0.02 in0.5 mm
03:44 AM 44.3°F6.8°C 41.3°F5.2°C 89% 6.0 mph SE9.7 kmh SE 9.0 mph14.5 kmh 29.51 in999.3 mb 0.00 in0.0 mm 0.00 in0.0 mm 0.02 in0.5 mm
03:50 AM 44.2°F6.8°C 41.2°F5.1°C 89% 1.0 mph SSE1.6 kmh SSE 2.0 mph3.2 kmh 29.51 in999.3 mb 0.00 in0.0 mm 0.00 in0.0 mm 0.02 in0.5 mm
04:04 AM 44.1°F6.7°C 41.1°F5.1°C 89% 3.0 mph SSE4.8 kmh SSE 8.0 mph12.9 kmh 29.51 in999.3 mb 0.00 in0.0 mm 0.00 in0.0 mm 0.02 in0.5 mm
04:10 AM 44.1°F6.7°C 41.1°F5.1°C 89% 8.0 mph SSE12.9 kmh SSE 10.0 mph16.1 kmh 29.51 in999.3 mb 0.00 in0.0 mm 0.00 in0.0 mm 0.02 in0.5 mm
04:25 AM 43.9°F6.6°C 40.9°F4.9°C 89% 5.0 mph SE8.0 kmh SE 8.0 mph12.9 kmh 29.51 in999.3 mb 0.00 in0.0 mm 0.00 in0.0 mm 0.02 in0.5 mm
04:30 AM 43.8°F6.6°C 40.8°F4.9°C 89% 6.0 mph SE9.7 kmh SE 8.0 mph12.9 kmh 29.51 in999.3 mb 0.00 in0.0 mm 0.00 in0.0 mm 0.02 in0.5 mm
04:45 AM 43.7°F6.5°C 41.0°F5.0°C 90% 4.0 mph SE6.4 kmh SE 6.0 mph9.7 kmh 29.52 in999.7 mb 0.00 in0.0 mm 0.00 in0.0 mm 0.02 in0.5 mm
04:50 AM 43.7°F6.5°C 41.0°F5.0°C 90% 4.0 mph SE6.4 kmh SE 6.0 mph9.7 kmh 29.52 in999.7 mb 0.00 in0.0 mm 0.00 in0.0 mm 0.02 in0.5 mm
05:05 AM 43.6°F6.4°C 40.9°F4.9°C 90% 4.0 mph SE6.4 kmh SE 8.0 mph12.9 kmh 29.52 in999.7 mb 0.00 in0.0 mm 0.00 in0.0 mm 0.02 in0.5 mm
05:09 AM 43.6°F6.4°C 40.9°F4.9°C 90% 5.0 mph SE8.0 kmh SE 8.0 mph12.9 kmh 29.52 in999.7 mb 0.00 in0.0 mm 0.00 in0.0 mm 0.02 in0.5 mm
05:24 AM 43.6°F6.4°C 40.6°F4.8°C 89% 6.0 mph SE9.7 kmh SE 10.0 mph16.1 kmh 29.53 in1000.0 mb 0.00 in0.0 mm 0.00 in0.0 mm 0.02 in0.5 mm
05:29 AM 43.5°F6.4°C 40.5°F4.7°C 89% 3.0 mph SE4.8 kmh SE 10.0 mph16.1 kmh 29.53 in1000.0 mb 0.00 in0.0 mm 0.00 in0.0 mm 0.02 in0.5 mm
05:44 AM 43.6°F6.4°C 40.6°F4.8°C 89% 3.0 mph SSE4.8 kmh SSE 7.0 mph11.3 kmh 29.53 in1000.0 mb 0.00 in0.0 mm 0.00 in0.0 mm 0.02 in0.5 mm
05:50 AM 43.5°F6.4°C 40.2°F4.6°C 88% 3.0 mph SE4.8 kmh SE 7.0 mph11.3 kmh 29.53 in1000.0 mb 0.00 in0.0 mm 0.00 in0.0 mm 0.02 in0.5 mm
06:05 AM 43.3°F6.3°C 40.0°F4.4°C 88% 1.0 mph SSE1.6 kmh SSE 8.0 mph12.9 kmh 29.54 in1000.3 mb 0.00 in0.0 mm 0.00 in0.0 mm 0.02 in0.5 mm
06:09 AM 43.3°F6.3°C 40.3°F4.6°C 89% 3.0 mph SSE4.8 kmh SSE 8.0 mph12.9 kmh 29.54 in1000.3 mb 0.00 in0.0 mm 0.00 in0.0 mm 0.02 in0.5 mm
06:25 AM 43.2°F6.2°C 40.2°F4.6°C 89% 4.0 mph S6.4 kmh S 6.0 mph9.7 kmh 29.55 in1000.7 mb 0.00 in0.0 mm 0.00 in0.0 mm 0.02 in0.5 mm
06:30 AM 43.2°F6.2°C 40.2°F4.6°C 89% 3.0 mph S4.8 kmh S 6.0 mph9.7 kmh 29.55 in1000.7 mb 0.00 in0.0 mm 0.00 in0.0 mm 0.02 in0.5 mm
06:45 AM 43.3°F6.3°C 40.0°F4.4°C 88% 5.0 mph SSE8.0 kmh SSE 7.0 mph11.3 kmh 29.55 in1000.7 mb 0.00 in0.0 mm 0.00 in0.0 mm 0.02 in0.5 mm
06:49 AM 43.3°F6.3°C 40.0°F4.4°C 88% 7.0 mph SE11.3 kmh SE 7.0 mph11.3 kmh 29.55 in1000.7 mb 0.00 in0.0 mm 0.00 in0.0 mm 0.02 in0.5 mm
07:05 AM 43.4°F6.3°C 40.1°F4.5°C 88% 2.0 mph SE3.2 kmh SE 8.0 mph12.9 kmh 29.56 in1001.0 mb 0.00 in0.0 mm 0.00 in0.0 mm 0.02 in0.5 mm
07:10 AM 43.5°F6.4°C 40.5°F4.7°C 89% 3.0 mph SE4.8 kmh SE 9.0 mph14.5 kmh 29.56 in1001.0 mb 0.00 in0.0 mm 0.00 in0.0 mm 0.02 in0.5 mm
07:25 AM 43.6°F6.4°C 40.6°F4.8°C 89% 6.0 mph SE9.7 kmh SE 9.0 mph14.5 kmh 29.56 in1001.0 mb 0.00 in0.0 mm 0.00 in0.0 mm 0.02 in0.5 mm
07:29 AM 43.6°F6.4°C 40.6°F4.8°C 89% 5.0 mph ESE8.0 kmh ESE 9.0 mph14.5 kmh 29.56 in1001.0 mb 0.00 in0.0 mm 0.00 in0.0 mm 0.02 in0.5 mm
07:45 AM 43.3°F6.3°C 40.3°F4.6°C 89% 1.0 mph SSE1.6 kmh SSE 10.0 mph16.1 kmh 29.57 in1001.4 mb 0.00 in0.0 mm 0.00 in0.0 mm 0.02 in0.5 mm
07:50 AM 43.2°F6.2°C 40.2°F4.6°C 89% 8.0 mph S12.9 kmh S 8.0 mph12.9 kmh 29.57 in1001.4 mb 0.00 in0.0 mm 0.00 in0.0 mm 0.02 in0.5 mm
08:05 AM 43.1°F6.2°C 40.1°F4.5°C 89% 5.0 mph SSE8.0 kmh SSE 11.0 mph17.7 kmh 29.57 in1001.4 mb 0.00 in0.0 mm 0.00 in0.0 mm 0.02 in0.5 mm
08:10 AM 43.1°F6.2°C 40.1°F4.5°C 89% 8.0 mph SSW12.9 kmh SSW 9.0 mph14.5 kmh 29.57 in1001.4 mb 0.00 in0.0 mm 0.00 in0.0 mm 0.02 in0.5 mm
08:25 AM 43.1°F6.2°C 40.1°F4.5°C 89% 7.0 mph SE11.3 kmh SE 9.0 mph14.5 kmh 29.58 in1001.7 mb 0.00 in0.0 mm 0.00 in0.0 mm 0.02 in0.5 mm
08:29 AM 43.1°F6.2°C 40.1°F4.5°C 89% 4.0 mph SE6.4 kmh SE 9.0 mph14.5 kmh 29.58 in1001.7 mb 0.00 in0.0 mm 0.00 in0.0 mm 0.02 in0.5 mm
08:45 AM 43.2°F6.2°C 39.9°F4.4°C 88% 4.0 mph SE6.4 kmh SE 9.0 mph14.5 kmh 29.58 in1001.7 mb 0.00 in0.0 mm 0.00 in0.0 mm 0.02 in0.5 mm
08:50 AM 43.4°F6.3°C 40.4°F4.7°C 89% 6.0 mph S9.7 kmh S 11.0 mph17.7 kmh 29.59 in1002.0 mb 0.00 in0.0 mm 0.00 in0.0 mm 0.02 in0.5 mm
09:05 AM 44.0°F6.7°C 40.7°F4.8°C 88% 7.0 mph S11.3 kmh S 13.0 mph20.9 kmh 29.59 in1002.0 mb 0.00 in0.0 mm 0.00 in0.0 mm 0.02 in0.5 mm
09:10 AM 44.2°F6.8°C 40.6°F4.8°C 87% 3.0 mph SSW4.8 kmh SSW 13.0 mph20.9 kmh 29.60 in1002.4 mb 0.00 in0.0 mm 0.00 in0.0 mm 0.02 in0.5 mm
09:25 AM 44.4°F6.9°C 40.8°F4.9°C 87% 5.0 mph SSE8.0 kmh SSE 10.0 mph16.1 kmh 29.60 in1002.4 mb 0.00 in0.0 mm 0.00 in0.0 mm 0.02 in0.5 mm
09:29 AM 44.3°F6.8°C 40.4°F4.7°C 86% 8.0 mph SE12.9 kmh SE 10.0 mph16.1 kmh 29.60 in1002.4 mb 0.00 in0.0 mm 0.00 in0.0 mm 0.02 in0.5 mm
09:45 AM 44.3°F6.8°C 40.4°F4.7°C 86% 4.0 mph SSE6.4 kmh SSE 4.0 mph6.4 kmh 29.60 in1002.4 mb 0.00 in0.0 mm 0.00 in0.0 mm 0.02 in0.5 mm
09:50 AM 44.3°F6.8°C 40.4°F4.7°C 86% 4.0 mph SSE6.4 kmh SSE 4.0 mph6.4 kmh 29.60 in1002.4 mb 0.00 in0.0 mm 0.00 in0.0 mm 0.02 in0.5 mm
10:05 AM 45.1°F7.3°C 41.2°F5.1°C 86% 5.0 mph SE8.0 kmh SE 10.0 mph16.1 kmh 29.60 in1002.4 mb 0.00 in0.0 mm 0.00 in0.0 mm 0.02 in0.5 mm
10:10 AM 45.4°F7.4°C 41.2°F5.1°C 85% 5.0 mph SE8.0 kmh SE 10.0 mph16.1 kmh 29.60 in1002.4 mb 0.00 in0.0 mm 0.00 in0.0 mm 0.02 in0.5 mm
10:25 AM 45.6°F7.6°C 41.1°F5.1°C 84% 4.0 mph SE6.4 kmh SE 10.0 mph16.1 kmh 29.60 in1002.4 mb 0.00 in0.0 mm 0.00 in0.0 mm 0.02 in0.5 mm
10:30 AM 45.7°F7.6°C 41.2°F5.1°C 84% 6.0 mph SE9.7 kmh SE 11.0 mph17.7 kmh 29.61 in1002.7 mb 0.00 in0.0 mm 0.00 in0.0 mm 0.02 in0.5 mm
10:44 AM 46.0°F7.8°C 41.8°F5.4°C 85% 4.0 mph SE6.4 kmh SE 6.0 mph9.7 kmh 29.61 in1002.7 mb 0.00 in0.0 mm 0.00 in0.0 mm 0.02 in0.5 mm
10:49 AM 46.1°F7.8°C 41.5°F5.3°C 84% 5.0 mph SE8.0 kmh SE 13.0 mph20.9 kmh 29.61 in1002.7 mb 0.00 in0.0 mm 0.00 in0.0 mm 0.02 in0.5 mm
11:05 AM 46.9°F8.3°C 42.3°F5.7°C 84% 12.0 mph SE19.3 kmh SE 13.0 mph20.9 kmh 29.61 in1002.7 mb 0.00 in0.0 mm 0.00 in0.0 mm 0.02 in0.5 mm
11:10 AM 47.2°F8.4°C 42.0°F5.6°C 82% 3.0 mph SE4.8 kmh SE 3.0 mph4.8 kmh 29.60 in1002.4 mb 0.00 in0.0 mm 0.00 in0.0 mm 0.02 in0.5 mm
11:25 AM 47.6°F8.7°C 41.8°F5.4°C 80% 6.0 mph SE9.7 kmh SE 13.0 mph20.9 kmh 29.60 in1002.4 mb 0.00 in0.0 mm 0.00 in0.0 mm 0.02 in0.5 mm
11:30 AM 47.4°F8.6°C 41.2°F5.1°C 79% 4.0 mph ESE6.4 kmh ESE 13.0 mph20.9 kmh 29.60 in1002.4 mb 0.00 in0.0 mm 0.00 in0.0 mm 0.02 in0.5 mm
11:45 AM 47.2°F8.4°C 41.4°F5.2°C 80% 5.0 mph SSE8.0 kmh SSE 9.0 mph14.5 kmh 29.60 in1002.4 mb 0.00 in0.0 mm 0.00 in0.0 mm 0.02 in0.5 mm
11:50 AM 47.2°F8.4°C 41.4°F5.2°C 80% 11.0 mph SSE17.7 kmh SSE 15.0 mph24.1 kmh 29.60 in1002.4 mb 0.00 in0.0 mm 0.00 in0.0 mm 0.02 in0.5 mm
12:05 PM 47.1°F8.4°C 40.9°F4.9°C 79% 3.0 mph S4.8 kmh S 15.0 mph24.1 kmh 29.60 in1002.4 mb 0.00 in0.0 mm 0.00 in0.0 mm 0.02 in0.5 mm
12:10 PM 47.1°F8.4°C 41.3°F5.2°C 80% 7.0 mph SSW11.3 kmh SSW 15.0 mph24.1 kmh 29.60 in1002.4 mb 0.00 in0.0 mm 0.00 in0.0 mm 0.02 in0.5 mm
12:24 PM 46.6°F8.1°C 40.8°F4.9°C 80% 6.0 mph SE9.7 kmh SE 13.0 mph20.9 kmh 29.60 in1002.4 mb 0.00 in0.0 mm 0.00 in0.0 mm 0.02 in0.5 mm
12:29 PM 46.6°F8.1°C 41.1°F5.1°C 81% 5.0 mph SSE8.0 kmh SSE 13.0 mph20.9 kmh 29.60 in1002.4 mb 0.00 in0.0 mm 0.00 in0.0 mm 0.02 in0.5 mm
12:44 PM 46.7°F8.2°C 41.2°F5.1°C 81% 3.0 mph S4.8 kmh S 11.0 mph17.7 kmh 29.60 in1002.4 mb 0.00 in0.0 mm 0.00 in0.0 mm 0.02 in0.5 mm
12:50 PM 46.8°F8.2°C 41.3°F5.2°C 81% 10.0 mph SSE16.1 kmh SSE 13.0 mph20.9 kmh 29.60 in1002.4 mb 0.00 in0.0 mm 0.00 in0.0 mm 0.02 in0.5 mm
01:05 PM 47.4°F8.6°C 41.2°F5.1°C 79% 6.0 mph SE9.7 kmh SE 10.0 mph16.1 kmh 29.60 in1002.4 mb 0.00 in0.0 mm 0.00 in0.0 mm 0.02 in0.5 mm
01:10 PM 47.3°F8.5°C 41.1°F5.1°C 79% 9.0 mph ESE14.5 kmh ESE 14.0 mph22.5 kmh 29.60 in1002.4 mb 0.00 in0.0 mm 0.00 in0.0 mm 0.02 in0.5 mm
01:25 PM 46.9°F8.3°C 40.7°F4.8°C 79% 7.0 mph SE11.3 kmh SE 13.0 mph20.9 kmh 29.60 in1002.4 mb 0.00 in0.0 mm 0.00 in0.0 mm 0.02 in0.5 mm
01:29 PM 46.8°F8.2°C 40.6°F4.8°C 79% 6.0 mph SE9.7 kmh SE 13.0 mph20.9 kmh 29.60 in1002.4 mb 0.00 in0.0 mm 0.00 in0.0 mm 0.02 in0.5 mm
01:44 PM 46.7°F8.2°C 40.5°F4.7°C 79% 6.0 mph S9.7 kmh S 13.0 mph20.9 kmh 29.60 in1002.4 mb 0.00 in0.0 mm 0.00 in0.0 mm 0.02 in0.5 mm
01:50 PM 46.6°F8.1°C 40.5°F4.7°C 79% 7.0 mph SE11.3 kmh SE 10.0 mph16.1 kmh 29.60 in1002.4 mb 0.00 in0.0 mm 0.00 in0.0 mm 0.02 in0.5 mm
02:05 PM 46.6°F8.1°C 40.5°F4.7°C 79% 5.0 mph SSE8.0 kmh SSE 10.0 mph16.1 kmh 29.60 in1002.4 mb 0.00 in0.0 mm 0.00 in0.0 mm 0.02 in0.5 mm
02:10 PM 46.5°F8.1°C 40.4°F4.7°C 79% 6.0 mph S9.7 kmh S 14.0 mph22.5 kmh 29.60 in1002.4 mb 0.00 in0.0 mm 0.00 in0.0 mm 0.02 in0.5 mm
02:29 PM 46.5°F8.1°C 40.4°F4.7°C 79% 11.0 mph SE17.7 kmh SE 13.0 mph20.9 kmh 29.60 in1002.4 mb 0.00 in0.0 mm 0.00 in0.0 mm 0.02 in0.5 mm
02:44 PM 46.3°F7.9°C 40.2°F4.6°C 79% 5.0 mph S8.0 kmh S 14.0 mph22.5 kmh 29.60 in1002.4 mb 0.00 in0.0 mm 0.00 in0.0 mm 0.02 in0.5 mm
02:50 PM 46.4°F8.0°C 40.3°F4.6°C 79% 7.0 mph SE11.3 kmh SE 7.0 mph11.3 kmh 29.60 in1002.4 mb 0.00 in0.0 mm 0.00 in0.0 mm 0.02 in0.5 mm
03:04 PM 46.5°F8.1°C 40.4°F4.7°C 79% 9.0 mph S14.5 kmh S 13.0 mph20.9 kmh 29.60 in1002.4 mb 0.00 in0.0 mm 0.00 in0.0 mm 0.02 in0.5 mm
03:09 PM 46.5°F8.1°C 40.7°F4.8°C 80% 12.0 mph SE19.3 kmh SE 13.0 mph20.9 kmh 29.60 in1002.4 mb 0.00 in0.0 mm 0.00 in0.0 mm 0.02 in0.5 mm
03:25 PM 46.5°F8.1°C 40.7°F4.8°C 80% 8.0 mph SE12.9 kmh SE 13.0 mph20.9 kmh 29.59 in1002.0 mb 0.00 in0.0 mm 0.00 in0.0 mm 0.02 in0.5 mm
03:29 PM 46.4°F8.0°C 40.6°F4.8°C 80% 6.0 mph SE9.7 kmh SE 14.0 mph22.5 kmh 29.59 in1002.0 mb 0.00 in0.0 mm 0.00 in0.0 mm 0.02 in0.5 mm
03:44 PM 46.0°F7.8°C 40.2°F4.6°C 80% 9.0 mph SE14.5 kmh SE 11.0 mph17.7 kmh 29.60 in1002.4 mb 0.00 in0.0 mm 0.00 in0.0 mm 0.02 in0.5 mm
03:50 PM 45.8°F7.7°C 40.0°F4.4°C 80% 5.0 mph SE8.0 kmh SE 11.0 mph17.7 kmh 29.60 in1002.4 mb 0.00 in0.0 mm 0.00 in0.0 mm 0.02 in0.5 mm
04:05 PM 45.4°F7.4°C 39.9°F4.4°C 81% 4.0 mph SE6.4 kmh SE 10.0 mph16.1 kmh 29.60 in1002.4 mb 0.00 in0.0 mm 0.00 in0.0 mm 0.02 in0.5 mm
04:09 PM 45.2°F7.3°C 40.0°F4.4°C 82% 8.0 mph SSE12.9 kmh SSE 15.0 mph24.1 kmh 29.60 in1002.4 mb 0.00 in0.0 mm 0.00 in0.0 mm 0.02 in0.5 mm
04:25 PM 45.0°F7.2°C 40.2°F4.6°C 83% 3.0 mph SSE4.8 kmh SSE 12.0 mph19.3 kmh 29.60 in1002.4 mb 0.00 in0.0 mm 0.00 in0.0 mm 0.02 in0.5 mm
04:29 PM 44.9°F7.2°C 40.1°F4.5°C 83% 2.0 mph SE3.2 kmh SE 12.0 mph19.3 kmh 29.60 in1002.4 mb 0.00 in0.0 mm 0.00 in0.0 mm 0.02 in0.5 mm
04:45 PM 44.8°F7.1°C 40.0°F4.4°C 83% 5.0 mph SSE8.0 kmh SSE 10.0 mph16.1 kmh 29.60 in1002.4 mb 0.00 in0.0 mm 0.00 in0.0 mm 0.02 in0.5 mm
04:50 PM 44.8°F7.1°C 40.0°F4.4°C 83% 5.0 mph SSE8.0 kmh SSE 5.0 mph8.0 kmh 29.61 in1002.7 mb 0.00 in0.0 mm 0.00 in0.0 mm 0.02 in0.5 mm
05:05 PM 44.7°F7.1°C 40.2°F4.6°C 84% 3.0 mph SSE4.8 kmh SSE 10.0 mph16.1 kmh 29.61 in1002.7 mb 0.00 in0.0 mm 0.00 in0.0 mm 0.02 in0.5 mm
05:10 PM 44.8°F7.1°C 40.0°F4.4°C 83% 3.0 mph SE4.8 kmh SE 3.0 mph4.8 kmh 29.60 in1002.4 mb 0.00 in0.0 mm 0.00 in0.0 mm 0.02 in0.5 mm
05:24 PM 44.9°F7.2°C 40.1°F4.5°C 83% 4.0 mph SSE6.4 kmh SSE 12.0 mph19.3 kmh 29.61 in1002.7 mb 0.00 in0.0 mm 0.00 in0.0 mm 0.02 in0.5 mm
05:30 PM 44.9°F7.2°C 40.1°F4.5°C 83% 6.0 mph SE9.7 kmh SE 6.0 mph9.7 kmh 29.61 in1002.7 mb 0.00 in0.0 mm 0.00 in0.0 mm 0.02 in0.5 mm
05:44 PM 45.0°F7.2°C 40.2°F4.6°C 83% 5.0 mph SE8.0 kmh SE 6.0 mph9.7 kmh 29.61 in1002.7 mb 0.00 in0.0 mm 0.00 in0.0 mm 0.02 in0.5 mm
05:49 PM 45.0°F7.2°C 40.5°F4.7°C 84% 5.0 mph SE8.0 kmh SE 8.0 mph12.9 kmh 29.61 in1002.7 mb 0.00 in0.0 mm 0.00 in0.0 mm 0.02 in0.5 mm
06:05 PM 44.7°F7.1°C 40.8°F4.9°C 86% 4.0 mph SE6.4 kmh SE 10.0 mph16.1 kmh 29.62 in1003.0 mb 0.00 in0.0 mm 0.00 in0.0 mm 0.02 in0.5 mm
06:10 PM 44.5°F6.9°C 40.9°F4.9°C 87% 6.0 mph SSE9.7 kmh SSE 10.0 mph16.1 kmh 29.61 in1002.7 mb 0.01 in0.3 mm 0.12 in3.0 mm 0.03 in0.8 mm
06:25 PM 44.2°F6.8°C 40.9°F4.9°C 88% 3.0 mph SSE4.8 kmh SSE 8.0 mph12.9 kmh 29.62 in1003.0 mb 0.01 in0.3 mm 0.00 in0.0 mm 0.03 in0.8 mm
06:30 PM 44.1°F6.7°C 41.1°F5.1°C 89% 6.0 mph S9.7 kmh S 6.0 mph9.7 kmh 29.62 in1003.0 mb 0.01 in0.3 mm 0.00 in0.0 mm 0.03 in0.8 mm
06:44 PM 43.8°F6.6°C 41.1°F5.1°C 90% 3.0 mph SE4.8 kmh SE 9.0 mph14.5 kmh 29.62 in1003.0 mb 0.01 in0.3 mm 0.00 in0.0 mm 0.03 in0.8 mm
06:50 PM 43.8°F6.6°C 41.1°F5.1°C 90% 2.0 mph SE3.2 kmh SE 9.0 mph14.5 kmh 29.62 in1003.0 mb 0.02 in0.5 mm 0.10 in2.5 mm 0.04 in1.0 mm
07:05 PM 43.6°F6.4°C 41.2°F5.1°C 91% 4.0 mph SSE6.4 kmh SSE 6.0 mph9.7 kmh 29.62 in1003.0 mb 0.04 in1.0 mm 0.03 in0.8 mm 0.06 in1.5 mm
07:10 PM 43.5°F6.4°C 41.1°F5.1°C 91% 2.0 mph SE3.2 kmh SE 6.0 mph9.7 kmh 29.62 in1003.0 mb 0.05 in1.3 mm 0.12 in3.0 mm 0.07 in1.8 mm
07:25 PM 43.3°F6.3°C 41.1°F5.1°C 92% 2.0 mph S3.2 kmh S 6.0 mph9.7 kmh 29.62 in1003.0 mb 0.05 in1.3 mm 0.00 in0.0 mm 0.07 in1.8 mm
07:30 PM 43.3°F6.3°C 41.1°F5.1°C 92% 2.0 mph S3.2 kmh S 6.0 mph9.7 kmh 29.62 in1003.0 mb 0.06 in1.5 mm 0.12 in3.0 mm 0.08 in2.0 mm
07:45 PM 43.2°F6.2°C 41.3°F5.2°C 93% 5.0 mph S8.0 kmh S 7.0 mph11.3 kmh 29.62 in1003.0 mb 0.07 in1.8 mm 0.04 in1.0 mm 0.09 in2.3 mm
07:49 PM 43.2°F6.2°C 41.3°F5.2°C 93% 2.0 mph SSE3.2 kmh SSE 9.0 mph14.5 kmh 29.62 in1003.0 mb 0.07 in1.8 mm 0.00 in0.0 mm 0.09 in2.3 mm
08:05 PM 43.2°F6.2°C 41.3°F5.2°C 93% 3.0 mph SE4.8 kmh SE 6.0 mph9.7 kmh 29.62 in1003.0 mb 0.06 in1.5 mm 0.00 in0.0 mm 0.09 in2.3 mm
08:10 PM 43.2°F6.2°C 41.3°F5.2°C 93% 2.0 mph SE3.2 kmh SE 6.0 mph9.7 kmh 29.62 in1003.0 mb 0.06 in1.5 mm 0.00 in0.0 mm 0.09 in2.3 mm
08:25 PM 43.1°F6.2°C 41.2°F5.1°C 93% 1.0 mph SSE1.6 kmh SSE 8.0 mph12.9 kmh 29.62 in1003.0 mb 0.05 in1.3 mm 0.00 in0.0 mm 0.09 in2.3 mm
08:29 PM 43.1°F6.2°C 41.2°F5.1°C 93% 2.0 mph SSE3.2 kmh SSE 8.0 mph12.9 kmh 29.62 in1003.0 mb 0.05 in1.3 mm 0.00 in0.0 mm 0.09 in2.3 mm
08:45 PM 43.1°F6.2°C 41.2°F5.1°C 93% 1.0 mph SSE1.6 kmh SSE 7.0 mph11.3 kmh 29.62 in1003.0 mb 0.02 in0.5 mm 0.00 in0.0 mm 0.09 in2.3 mm
08:50 PM 43.1°F6.2°C 41.2°F5.1°C 93% 2.0 mph SSE3.2 kmh SSE 7.0 mph11.3 kmh 29.62 in1003.0 mb 0.02 in0.5 mm 0.00 in0.0 mm 0.09 in2.3 mm
09:04 PM 42.9°F6.1°C 41.3°F5.2°C 94% 1.0 mph SSE1.6 kmh SSE 5.0 mph8.0 kmh 29.63 in1003.4 mb 0.01 in0.3 mm 0.00 in0.0 mm 0.09 in2.3 mm
09:10 PM 42.9°F6.1°C 41.3°F5.2°C 94% Calm Calm 5.0 mph8.0 kmh 29.63 in1003.4 mb 0.01 in0.3 mm 0.00 in0.0 mm 0.09 in2.3 mm
09:25 PM 42.9°F6.1°C 41.3°F5.2°C 94% 2.0 mph S3.2 kmh S 6.0 mph9.7 kmh 29.63 in1003.4 mb 0.00 in0.0 mm 0.00 in0.0 mm 0.09 in2.3 mm
09:30 PM 42.9°F6.1°C 41.3°F5.2°C 94% 5.0 mph SE8.0 kmh SE 7.0 mph11.3 kmh 29.63 in1003.4 mb 0.00 in0.0 mm 0.00 in0.0 mm 0.09 in2.3 mm
09:45 PM 44.5°F6.9°C 43.4°F6.3°C 96% 3.0 mph SSE4.8 kmh SSE 4.0 mph6.4 kmh 29.64 in1003.7 mb 0.01 in0.3 mm 0.04 in1.0 mm 0.10 in2.5 mm
09:49 PM 44.5°F6.9°C 43.2°F6.2°C 95% 3.0 mph S4.8 kmh S 6.0 mph9.7 kmh 29.64 in1003.7 mb 0.01 in0.3 mm 0.00 in0.0 mm 0.10 in2.5 mm
10:05 PM 44.4°F6.9°C 43.1°F6.2°C 95% 3.0 mph S4.8 kmh S 6.0 mph9.7 kmh 29.64 in1003.7 mb 0.01 in0.3 mm 0.00 in0.0 mm 0.10 in2.5 mm
10:10 PM 44.4°F6.9°C 43.1°F6.2°C 95% 1.0 mph S1.6 kmh S 6.0 mph9.7 kmh 29.64 in1003.7 mb 0.01 in0.3 mm 0.00 in0.0 mm 0.10 in2.5 mm
10:25 PM 44.7°F7.1°C 43.4°F6.3°C 95% 4.0 mph SE6.4 kmh SE 8.0 mph12.9 kmh 29.65 in1004.1 mb 0.01 in0.3 mm 0.00 in0.0 mm 0.10 in2.5 mm
10:29 PM 44.7°F7.1°C 43.4°F6.3°C 95% 2.0 mph SE3.2 kmh SE 8.0 mph12.9 kmh 29.65 in1004.1 mb 0.01 in0.3 mm 0.00 in0.0 mm 0.10 in2.5 mm
10:45 PM 44.8°F7.1°C 43.5°F6.4°C 95% 4.0 mph S6.4 kmh S 10.0 mph16.1 kmh 29.65 in1004.1 mb 0.01 in0.3 mm 0.00 in0.0 mm 0.10 in2.5 mm
10:50 PM 44.9°F7.2°C 43.6°F6.4°C 95% 5.0 mph SSW8.0 kmh SSW 10.0 mph16.1 kmh 29.65 in1004.1 mb 0.03 in0.8 mm 0.24 in6.1 mm 0.12 in3.0 mm
11:05 PM 44.7°F7.1°C 43.4°F6.3°C 95% 9.0 mph SSW14.5 kmh SSW 13.0 mph20.9 kmh 29.66 in1004.4 mb 0.06 in1.5 mm 0.04 in1.0 mm 0.15 in3.8 mm
11:10 PM 44.7°F7.1°C 43.1°F6.2°C 94% 6.0 mph SSW9.7 kmh SSW 13.0 mph20.9 kmh 29.66 in1004.4 mb 0.07 in1.8 mm 0.12 in3.0 mm 0.16 in4.1 mm
11:25 PM 43.3°F6.3°C 41.4°F5.2°C 93% 2.0 mph S3.2 kmh S 9.0 mph14.5 kmh 29.67 in1004.7 mb 0.07 in1.8 mm 0.00 in0.0 mm 0.16 in4.1 mm
11:30 PM 43.5°F6.4°C 41.9°F5.5°C 94% 7.0 mph SSW11.3 kmh SSW 9.0 mph14.5 kmh 29.67 in1004.7 mb 0.07 in1.8 mm 0.00 in0.0 mm 0.16 in4.1 mm
11:44 PM 43.4°F6.3°C 41.5°F5.3°C 93% 5.0 mph SW8.0 kmh SW 14.0 mph22.5 kmh 29.67 in1004.7 mb 0.07 in1.8 mm 0.00 in0.0 mm 0.16 in4.1 mm
11:50 PM 43.4°F6.3°C 41.5°F5.3°C 93% 5.0 mph SSW8.0 kmh SSW 14.0 mph22.5 kmh 29.67 in1004.7 mb 0.07 in1.8 mm 0.00 in0.0 mm 0.16 in4.1 mm